createdAt,value
2019-04-10T00:02:07.149Z,40.03
2019-04-10T00:04:36.721Z,49.00
2019-04-10T00:07:14.645Z,46.00
2019-04-10T00:09:39.224Z,41.83
2019-04-10T00:12:08.142Z,49.40
2019-04-10T00:14:36.796Z,42.10
2019-04-10T00:17:05.509Z,46.43
2019-04-10T00:19:35.751Z,43.30
2019-04-10T00:22:04.528Z,40.00
2019-04-10T00:24:33.167Z,43.37
2019-04-10T00:27:02.131Z,44.17
2019-04-10T00:29:32.018Z,44.93
2019-04-10T00:32:02.134Z,44.00
2019-04-10T00:34:31.833Z,43.10
2019-04-10T00:37:01.786Z,40.30
2019-04-10T00:39:30.694Z,46.43
2019-04-10T00:41:59.272Z,45.33
2019-04-10T00:44:27.965Z,47.67
2019-04-10T00:46:56.976Z,43.80
2019-04-10T00:49:26.041Z,43.80
2019-04-10T00:51:55.573Z,47.20
2019-04-10T00:54:24.253Z,45.97
2019-04-10T00:56:52.881Z,45.17
2019-04-10T00:59:21.588Z,44.93
2019-04-10T01:01:50.232Z,44.93
2019-04-10T01:04:18.885Z,45.63
2019-04-10T01:06:48.406Z,45.50
2019-04-10T01:09:17.393Z,46.83
2019-04-10T01:11:46.043Z,49.03
2019-04-10T01:14:15.788Z,44.57
2019-04-10T01:16:44.506Z,43.30
2019-04-10T01:19:13.140Z,40.07
2019-04-10T01:21:42.241Z,44.43
2019-04-10T01:24:11.152Z,40.07
2019-04-10T01:26:39.906Z,41.63
2019-04-10T01:29:09.278Z,44.60
2019-04-10T01:31:37.970Z,42.47
2019-04-10T01:34:07.449Z,41.47
2019-04-10T01:36:37.286Z,40.80
2019-04-10T01:39:08.916Z,41.73
2019-04-10T01:41:37.555Z,42.63
2019-04-10T01:44:06.336Z,38.07
2019-04-10T01:46:36.085Z,41.80
2019-04-10T01:49:05.233Z,36.40
2019-04-10T01:51:35.160Z,32.90
2019-04-10T01:54:04.084Z,37.00
2019-04-10T01:56:35.086Z,37.60
2019-04-10T01:59:03.572Z,38.07
2019-04-10T02:01:37.300Z,31.13
2019-04-10T02:04:06.734Z,34.47
2019-04-10T02:06:35.838Z,32.63
2019-04-10T02:09:07.692Z,31.53
2019-04-10T02:11:36.418Z,33.43
2019-04-10T02:14:05.726Z,33.80
2019-04-10T02:16:34.816Z,30.77
2019-04-10T02:19:03.906Z,31.83
2019-04-10T02:21:33.953Z,33.83
2019-04-10T02:24:02.949Z,29.20
2019-04-10T02:26:31.780Z,27.97
2019-04-10T02:29:01.632Z,28.20
2019-04-10T02:31:31.919Z,30.83
2019-04-10T02:34:01.574Z,24.67
2019-04-10T02:36:31.577Z,34.90
2019-04-10T02:39:12.204Z,25.90
2019-04-10T02:41:32.396Z,26.42
2019-04-10T02:44:02.921Z,27.77
2019-04-10T02:46:33.133Z,22.30
2019-04-10T02:49:05.966Z,24.13
2019-04-10T02:51:35.272Z,24.13
2019-04-10T02:54:05.254Z,23.80
2019-04-10T02:56:34.422Z,22.87
2019-04-10T02:59:04.851Z,26.77
2019-04-10T03:01:33.864Z,21.97
2019-04-10T03:04:03.428Z,26.43
2019-04-10T03:06:33.586Z,22.93
2019-04-10T03:09:18.976Z,20.33
2019-04-10T03:11:33.357Z,23.77
2019-04-10T03:14:04.791Z,21.33
2019-04-10T03:16:33.489Z,23.33
2019-04-10T03:19:03.239Z,24.17
2019-04-10T03:21:32.004Z,21.07
2019-04-10T03:29:54.407Z,23.73
2019-04-10T03:35:52.589Z,26.10
2019-04-10T03:39:18.526Z,22.73
2019-04-10T03:45:57.630Z,23.83
2019-04-10T03:48:34.760Z,22.00
2019-04-10T03:51:20.680Z,20.80
2019-04-10T03:54:24.517Z,19.93
2019-04-10T04:03:02.558Z,22.70
2019-04-10T04:05:31.228Z,19.70
2019-04-10T04:08:04.047Z,19.57
2019-04-10T04:10:32.938Z,19.70
2019-04-10T04:13:01.659Z,22.30
2019-04-10T04:15:30.413Z,21.20
2019-04-10T04:18:00.259Z,21.33
2019-04-10T04:20:29.068Z,24.10
2019-04-10T04:22:57.809Z,20.07
2019-04-10T04:25:29.111Z,19.03
2019-04-10T04:27:58.334Z,21.43
2019-04-10T04:30:27.460Z,20.73
2019-04-10T04:33:06.589Z,19.03
2019-04-10T04:35:38.746Z,22.32
2019-04-10T04:38:09.562Z,22.10
2019-04-10T04:40:38.828Z,19.07
2019-04-10T04:43:07.910Z,21.52
2019-04-10T04:45:37.563Z,19.67
2019-04-10T04:48:07.656Z,23.10
2019-04-10T04:50:36.500Z,21.25
2019-04-10T04:53:05.288Z,20.27
2019-04-10T04:55:35.190Z,19.60
2019-04-10T04:58:04.155Z,20.05
2019-04-10T05:00:33.999Z,20.52
2019-04-10T05:03:03.777Z,20.10
2019-04-10T05:05:33.598Z,19.32
2019-04-10T05:08:04.344Z,22.67
2019-04-10T05:10:33.547Z,21.57
2019-04-10T05:13:02.815Z,23.57
2019-04-10T05:15:33.677Z,32.73
2019-04-10T05:18:02.399Z,35.57
2019-04-10T05:20:41.273Z,29.05
2019-04-10T05:23:04.107Z,21.30
2019-04-10T05:25:34.357Z,21.97
2019-04-10T05:28:03.629Z,20.27
2019-04-10T05:30:33.557Z,21.50
2019-04-10T05:33:02.243Z,21.02
2019-04-10T05:35:31.956Z,30.02
2019-04-10T05:38:00.626Z,28.67
2019-04-10T05:40:30.152Z,21.60
2019-04-10T05:42:59.581Z,28.12
2019-04-10T05:45:28.357Z,24.92
2019-04-10T05:47:57.043Z,19.40
2019-04-10T05:50:25.800Z,23.37
2019-04-10T05:52:54.423Z,20.13
2019-04-10T05:55:24.620Z,22.43
2019-04-10T05:57:53.692Z,20.93
2019-04-10T06:00:23.117Z,21.33
2019-04-10T06:02:56.368Z,22.52
2019-04-10T06:05:25.143Z,20.63
2019-04-10T06:07:53.970Z,26.30
2019-04-10T06:10:22.651Z,21.52
2019-04-10T06:12:51.285Z,22.43
2019-04-10T06:15:21.091Z,21.43
2019-04-10T06:17:50.952Z,22.52
2019-04-10T06:20:20.819Z,22.00
2019-04-10T06:22:50.755Z,24.47
2019-04-10T06:25:22.217Z,22.37
2019-04-10T06:27:50.589Z,19.30
2019-04-10T06:30:21.763Z,25.80
2019-04-10T06:32:51.526Z,22.40
2019-04-10T06:35:20.341Z,21.05
2019-04-10T06:37:49.038Z,22.87
2019-04-10T06:40:21.061Z,21.60
2019-04-10T06:42:52.073Z,22.97
2019-04-10T06:45:19.741Z,21.10
2019-04-10T06:47:48.739Z,21.77
2019-04-10T06:50:17.417Z,23.38
2019-04-10T06:52:47.075Z,22.98
2019-04-10T06:55:16.013Z,21.50
2019-04-10T06:57:50.952Z,22.00
2019-04-10T07:00:18.481Z,21.33
2019-04-10T07:02:47.313Z,23.65
2019-04-10T07:05:16.504Z,25.72
2019-04-10T07:08:01.820Z,23.47
2019-04-10T07:10:30.936Z,23.55
2019-04-10T07:12:55.387Z,24.53
2019-04-10T07:15:25.525Z,21.30
2019-04-10T07:17:55.472Z,22.07
2019-04-10T07:20:26.142Z,26.30
2019-04-10T07:22:55.426Z,20.93
2019-04-10T07:25:25.736Z,21.23
2019-04-10T07:27:54.567Z,22.93
2019-04-10T07:30:26.045Z,23.07
2019-04-10T07:32:55.100Z,25.67
2019-04-10T07:35:24.092Z,23.20
2019-04-10T07:37:56.036Z,24.23
2019-04-10T07:40:23.297Z,22.90
2019-04-10T07:42:52.524Z,22.50
2019-04-10T07:45:28.614Z,21.17
2019-04-10T07:47:57.414Z,21.47
2019-04-10T07:50:26.204Z,21.47
2019-04-10T07:52:54.840Z,28.77
2019-04-10T07:55:25.695Z,22.07
2019-04-10T07:57:55.218Z,23.33
2019-04-10T08:00:25.164Z,25.00
2019-04-10T08:02:55.330Z,22.13
2019-04-10T08:05:25.050Z,21.07
2019-04-10T08:07:55.950Z,23.90
2019-04-10T08:10:24.484Z,23.87
2019-04-10T08:12:54.292Z,22.53
2019-04-10T08:15:23.216Z,23.60
2019-04-10T08:17:51.943Z,19.47
2019-04-10T08:20:21.868Z,27.93
2019-04-10T08:22:54.039Z,21.60
2019-04-10T08:25:38.775Z,21.20
2019-04-10T08:28:11.395Z,23.50
2019-04-10T08:30:41.941Z,23.07
2019-04-10T08:33:11.984Z,18.60
2019-04-10T08:35:41.912Z,25.00
2019-04-10T08:38:13.139Z,23.97
2019-04-10T08:40:41.933Z,21.33
2019-04-10T08:43:11.725Z,21.07
2019-04-10T08:45:55.494Z,22.70
2019-04-10T08:48:27.078Z,19.87
2019-04-10T08:50:56.826Z,20.72
2019-04-10T08:53:27.120Z,22.30
2019-04-10T08:55:57.202Z,21.80
2019-04-10T08:58:28.390Z,21.13
2019-04-10T09:01:01.048Z,19.50
2019-04-10T09:03:30.939Z,20.53
2019-04-10T09:06:17.887Z,21.00
2019-04-10T09:08:47.512Z,26.07
2019-04-10T09:11:25.415Z,22.37
2019-04-10T09:13:46.757Z,24.37
2019-04-10T09:16:18.344Z,17.60
2019-04-10T09:18:47.598Z,19.67
2019-04-10T09:21:17.454Z,22.30
2019-04-10T09:23:52.440Z,21.93
2019-04-10T09:26:20.294Z,21.13
2019-04-10T09:28:50.767Z,21.27
2019-04-10T09:31:19.858Z,23.20
2019-04-10T09:33:49.530Z,22.17
2019-04-10T09:36:19.723Z,19.37
2019-04-10T09:38:48.495Z,22.83
2019-04-10T09:41:17.527Z,19.40
2019-04-10T09:43:47.617Z,23.17
2019-04-10T09:46:16.467Z,21.37
2019-04-10T09:48:48.441Z,19.60
2019-04-10T09:51:38.712Z,21.73
2019-04-10T09:54:07.883Z,23.30
2019-04-10T09:56:39.589Z,20.27
2019-04-10T09:59:08.444Z,19.37
2019-04-10T10:01:38.428Z,18.40
2019-04-10T10:04:10.077Z,20.23
2019-04-10T10:06:39.609Z,18.87
2019-04-10T10:09:08.977Z,21.47
2019-04-10T10:11:38.613Z,19.23
2019-04-10T10:14:07.638Z,21.40
2019-04-10T10:16:40.619Z,19.00
2019-04-10T10:19:09.985Z,18.03
2019-04-10T10:21:38.890Z,18.80
2019-04-10T10:24:08.603Z,19.13
2019-04-10T10:26:37.543Z,18.90
2019-04-10T10:29:06.448Z,17.40
2019-04-10T10:31:36.058Z,18.03
2019-04-10T10:34:05.948Z,21.77
2019-04-10T10:36:41.469Z,20.80
2019-04-10T10:39:17.185Z,17.10
2019-04-10T10:41:46.798Z,21.40
2019-04-10T10:44:15.732Z,19.47
2019-04-10T10:46:44.557Z,20.83
2019-04-10T10:49:20.843Z,17.77
2019-04-10T10:51:49.595Z,19.77
2019-04-10T10:54:18.913Z,21.63
2019-04-10T10:56:50.999Z,19.37
2019-04-10T10:59:20.371Z,17.33
2019-04-10T11:01:49.106Z,17.90
2019-04-10T11:04:21.268Z,17.80
2019-04-10T11:06:59.350Z,22.47
2019-04-10T11:09:23.917Z,18.90
2019-04-10T11:11:53.734Z,16.80
2019-04-10T11:14:25.272Z,16.73
2019-04-10T11:16:58.025Z,17.00
2019-04-10T11:19:27.139Z,17.90
2019-04-10T11:21:56.879Z,16.73
2019-04-10T11:24:47.139Z,16.57
2019-04-10T11:27:31.802Z,17.27
2019-04-10T11:30:05.488Z,17.07
2019-04-10T11:32:34.214Z,18.40
2019-04-10T11:35:03.574Z,17.17
2019-04-10T11:37:41.140Z,18.47
2019-04-10T11:40:05.115Z,17.77
2019-04-10T11:42:35.094Z,17.07
2019-04-10T11:45:06.306Z,15.10
2019-04-10T11:47:36.387Z,16.27
2019-04-10T11:50:09.186Z,15.83
2019-04-10T11:55:13.775Z,14.43
2019-04-10T11:57:37.534Z,14.10
2019-04-10T12:00:12.055Z,18.53
2019-04-10T12:02:39.438Z,15.20
2019-04-10T12:05:12.013Z,14.43
2019-04-10T12:08:17.877Z,16.83
2019-04-10T12:12:39.922Z,16.33
2019-04-10T12:15:10.106Z,15.10
2019-04-10T12:17:38.868Z,13.80
2019-04-10T12:20:08.966Z,17.13
2019-04-10T12:22:38.067Z,13.53
2019-04-10T12:25:07.066Z,16.33
2019-04-10T12:27:36.897Z,13.40
2019-04-10T12:30:07.626Z,12.83
2019-04-10T12:32:36.727Z,13.73
2019-04-10T12:35:06.750Z,13.63
2019-04-10T12:37:35.726Z,15.50
2019-04-10T12:40:05.528Z,14.30
2019-04-10T12:42:34.616Z,17.17
2019-04-10T12:45:04.656Z,15.30
2019-04-10T12:47:34.257Z,15.67
2019-04-10T12:50:03.781Z,15.40
2019-04-10T12:52:34.765Z,19.27
2019-04-10T12:55:03.962Z,16.23
2019-04-10T12:57:32.942Z,15.33
2019-04-10T13:00:04.638Z,16.10
2019-04-10T13:02:32.317Z,15.03
2019-04-10T13:05:01.026Z,14.90
2019-04-10T13:07:31.688Z,16.70
2019-04-10T13:10:00.513Z,15.70
2019-04-10T13:12:29.388Z,12.93
2019-04-10T13:14:59.147Z,16.10
2019-04-10T13:17:28.915Z,15.00
2019-04-10T13:19:57.733Z,15.83
2019-04-10T13:22:26.559Z,13.17
2019-04-10T13:24:55.263Z,14.40
2019-04-10T13:27:23.977Z,14.83
2019-04-10T13:29:52.725Z,15.40
2019-04-10T13:32:21.542Z,16.43
2019-04-10T13:34:51.278Z,15.03
2019-04-10T13:37:20.219Z,13.10
2019-04-10T13:39:49.035Z,15.20
2019-04-10T13:42:17.859Z,15.03
2019-04-10T13:44:46.793Z,15.27
2019-04-10T13:47:18.019Z,13.10
2019-04-10T13:49:48.436Z,16.80
2019-04-10T13:52:18.243Z,13.50
2019-04-10T13:54:47.187Z,15.10
2019-04-10T13:57:16.017Z,13.73
2019-04-10T13:59:47.413Z,14.67
2019-04-10T14:02:27.708Z,16.23
2019-04-10T14:04:57.450Z,14.03
2019-04-10T14:07:26.875Z,18.60
2019-04-10T14:09:56.558Z,13.70
2019-04-10T14:12:25.570Z,14.03
2019-04-10T14:14:55.162Z,13.17
2019-04-10T14:17:24.068Z,12.13
2019-04-10T14:19:54.032Z,13.77
2019-04-10T14:22:23.907Z,15.90
2019-04-10T14:24:53.622Z,17.50
2019-04-10T14:27:25.370Z,14.70
2019-04-10T14:29:54.594Z,14.60
2019-04-10T14:32:29.219Z,13.30
2019-04-10T14:34:58.825Z,13.27
2019-04-10T14:37:29.557Z,14.57
2019-04-10T14:39:58.532Z,15.40
2019-04-10T14:42:28.327Z,18.43
2019-04-10T14:44:57.265Z,16.20
2019-04-10T14:47:26.093Z,14.47
2019-04-10T14:49:55.438Z,13.70
2019-04-10T14:52:25.400Z,15.40
2019-04-10T14:54:56.492Z,14.50
2019-04-10T14:57:26.402Z,16.10
2019-04-10T14:59:56.068Z,14.23
2019-04-10T15:02:26.474Z,14.60
2019-04-10T15:04:55.421Z,14.30
2019-04-10T15:07:24.236Z,15.77
2019-04-10T15:09:52.982Z,13.90
2019-04-10T15:12:24.703Z,13.03
2019-04-10T15:14:54.129Z,13.63
2019-04-10T15:17:23.181Z,16.40
2019-04-10T15:19:54.263Z,13.60
2019-04-10T15:22:23.503Z,15.73
2019-04-10T15:24:52.381Z,15.20
2019-04-10T15:27:21.566Z,17.43
2019-04-10T15:29:50.500Z,18.07
2019-04-10T15:32:20.225Z,13.00
2019-04-10T15:34:49.191Z,14.17
2019-04-10T15:37:17.913Z,15.03
2019-04-10T15:39:46.693Z,13.73
2019-04-10T15:42:16.254Z,12.57
2019-04-10T15:44:46.040Z,14.73
2019-04-10T15:47:19.702Z,13.80
2019-04-10T15:49:45.541Z,11.80
2019-04-10T15:52:14.525Z,14.43
2019-04-10T15:54:43.463Z,12.73
2019-04-10T15:57:12.101Z,14.43
2019-04-10T15:59:40.774Z,13.80
2019-04-10T16:02:09.443Z,12.83
2019-04-10T16:04:38.166Z,12.77
2019-04-10T16:07:06.863Z,12.83
2019-04-10T16:09:46.382Z,12.97
2019-04-10T16:12:14.527Z,12.10
2019-04-10T16:14:44.317Z,11.80
2019-04-10T16:17:34.420Z,13.90
2019-04-10T16:20:20.330Z,12.20
2019-04-10T16:23:14.322Z,14.80
2019-04-10T16:25:46.798Z,12.13
2019-04-10T16:28:17.983Z,16.37
2019-04-10T16:30:46.762Z,14.37
2019-04-10T16:33:16.843Z,14.03
2019-04-10T16:35:46.225Z,12.03
2019-04-10T16:38:14.981Z,13.90
2019-04-10T16:40:43.890Z,13.90
2019-04-10T16:43:13.835Z,12.60
2019-04-10T16:45:42.700Z,13.10
2019-04-10T16:48:11.532Z,14.00
2019-04-10T16:50:40.289Z,13.40
2019-04-10T16:53:09.794Z,14.23
2019-04-10T16:55:38.814Z,12.47
2019-04-10T16:58:07.667Z,12.50
2019-04-10T17:00:37.578Z,14.07
2019-04-10T17:03:06.824Z,16.87
2019-04-10T17:05:35.530Z,13.93
2019-04-10T17:08:05.629Z,15.20
2019-04-10T17:10:34.586Z,12.97
2019-04-10T17:13:04.446Z,15.73
2019-04-10T17:15:34.264Z,13.90
2019-04-10T17:18:03.263Z,15.30
2019-04-10T17:20:32.895Z,13.37
2019-04-10T17:23:02.553Z,14.23
2019-04-10T17:25:31.264Z,23.20
2019-04-10T17:28:00.089Z,15.90
2019-04-10T17:30:29.545Z,13.93
2019-04-10T17:32:58.371Z,14.37
2019-04-10T17:35:27.604Z,13.73
2019-04-10T17:37:56.318Z,16.80
2019-04-10T17:40:33.577Z,14.90
2019-04-10T17:42:56.697Z,14.20
2019-04-10T17:45:27.512Z,16.20
2019-04-10T17:47:56.815Z,14.93
2019-04-10T17:50:27.863Z,13.30
2019-04-10T17:52:56.814Z,13.20
2019-04-10T17:55:25.571Z,14.70
2019-04-10T17:57:57.386Z,14.37
2019-04-10T18:00:31.637Z,15.33
2019-04-10T18:03:01.223Z,16.77
2019-04-10T18:05:30.868Z,12.70
2019-04-10T18:08:02.912Z,15.43
2019-04-10T18:10:52.543Z,13.63
2019-04-10T18:13:22.747Z,14.77
2019-04-10T18:15:54.091Z,14.43
2019-04-10T18:18:45.740Z,15.53
2019-04-10T18:21:22.446Z,13.37
2019-04-10T18:23:57.890Z,15.33
2019-04-10T18:26:37.782Z,14.53
2019-04-10T18:29:11.896Z,14.97
2019-04-10T18:31:45.813Z,16.07
2019-04-10T18:34:19.334Z,14.70
2019-04-10T18:36:57.072Z,14.50
2019-04-10T18:39:43.598Z,15.60
2019-04-10T18:42:24.349Z,13.70
2019-04-10T18:45:03.741Z,14.17
2019-04-10T18:47:38.818Z,15.23
2019-04-10T18:50:07.897Z,14.83
2019-04-10T18:52:37.805Z,14.60
2019-04-10T18:55:12.535Z,14.50
2019-04-10T18:57:45.269Z,13.73
2019-04-10T19:00:34.455Z,15.57
2019-04-10T19:03:21.439Z,14.20
2019-04-10T19:05:54.754Z,12.70
2019-04-10T19:08:24.670Z,14.07
2019-04-10T19:11:10.576Z,13.70
2019-04-10T19:13:33.360Z,11.90
2019-04-10T19:16:04.116Z,12.97
2019-04-10T19:18:37.526Z,11.70
2019-04-10T19:21:11.391Z,15.27
2019-04-10T19:23:42.100Z,12.43
2019-04-10T19:26:15.581Z,13.63
2019-04-10T19:28:48.783Z,13.53
2019-04-10T19:31:24.250Z,15.33
2019-04-10T19:34:16.979Z,14.20
2019-04-10T19:36:48.743Z,14.25
2019-04-10T19:39:20.227Z,13.90
2019-04-10T19:41:53.858Z,16.13
2019-04-10T19:44:24.784Z,19.53
2019-04-10T19:46:59.851Z,14.37
2019-04-10T19:49:35.014Z,14.50
2019-04-10T19:52:28.541Z,13.50
2019-04-10T19:55:05.109Z,11.83
2019-04-10T19:57:41.514Z,12.57
2019-04-10T20:00:14.988Z,12.57
2019-04-10T20:02:44.456Z,11.48
2019-04-10T20:05:47.870Z,15.40
2019-04-10T20:08:20.275Z,13.97
2019-04-10T20:10:52.465Z,13.00
2019-04-10T20:13:26.949Z,13.20
2019-04-10T20:15:56.505Z,9.77
2019-04-10T20:18:26.595Z,13.80
2019-04-10T20:20:58.127Z,12.05
2019-04-10T20:23:29.987Z,12.87
2019-04-10T20:25:58.976Z,10.60
2019-04-10T20:28:28.889Z,11.90
2019-04-10T20:30:59.502Z,10.87
2019-04-10T20:33:32.632Z,11.60
2019-04-10T20:36:06.819Z,14.90
2019-04-10T20:38:37.334Z,15.20
2019-04-10T20:41:10.682Z,12.13
2019-04-10T20:43:42.857Z,11.10
2019-04-10T20:46:14.382Z,12.30
2019-04-10T20:48:44.638Z,11.57
2019-04-10T20:51:17.249Z,13.63
2019-04-10T20:53:50.502Z,10.97
2019-04-10T20:56:22.282Z,14.87
2019-04-10T20:58:57.510Z,13.05
2019-04-10T21:01:46.994Z,14.47
2019-04-10T21:04:18.051Z,11.50
2019-04-10T21:06:48.177Z,12.37
2019-04-10T21:09:43.815Z,12.60
2019-04-10T21:12:18.105Z,14.40
2019-04-10T21:14:45.822Z,15.32
2019-04-10T21:17:14.574Z,13.90
2019-04-10T21:19:43.301Z,12.47
2019-04-10T21:22:11.910Z,14.70
2019-04-10T21:24:41.242Z,11.55
2019-04-10T21:27:11.199Z,13.90
2019-04-10T21:30:07.863Z,12.73
2019-04-10T21:32:58.460Z,12.30
2019-04-10T21:35:30.921Z,13.70
2019-04-10T21:37:59.628Z,12.50
2019-04-10T21:40:28.245Z,13.50
2019-04-10T21:42:58.095Z,12.73
2019-04-10T21:45:26.993Z,16.73
2019-04-10T21:47:55.742Z,15.53
2019-04-10T21:50:24.759Z,15.90
2019-04-10T21:52:53.542Z,13.97
2019-04-10T21:55:23.579Z,15.50
2019-04-10T21:57:52.396Z,14.10
2019-04-10T22:00:36.717Z,13.45
2019-04-10T22:03:05.573Z,16.30
2019-04-10T22:05:36.756Z,12.63
2019-04-10T22:08:27.483Z,14.60
2019-04-10T22:10:57.335Z,14.87
2019-04-10T22:13:26.206Z,13.43
2019-04-10T22:15:55.434Z,14.90
2019-04-10T22:18:25.289Z,12.90
2019-04-10T22:20:54.187Z,14.78
2019-04-10T22:23:22.828Z,14.30
2019-04-10T22:25:52.263Z,14.93
2019-04-10T22:28:21.145Z,14.25
2019-04-10T22:30:50.578Z,15.83
2019-04-10T22:33:20.240Z,14.67
2019-04-10T22:35:49.026Z,14.33
2019-04-10T22:38:17.745Z,14.33
2019-04-10T22:40:46.386Z,16.85
2019-04-10T22:43:15.922Z,14.83
2019-04-10T22:45:44.744Z,16.30
2019-04-10T22:48:14.608Z,18.37
2019-04-10T22:50:43.344Z,14.03
2019-04-10T22:53:12.972Z,17.20
2019-04-10T22:55:42.458Z,24.77
2019-04-10T22:58:11.118Z,15.10
2019-04-10T23:00:39.853Z,16.00
2019-04-10T23:03:08.476Z,20.43
2019-04-10T23:05:37.350Z,16.48
2019-04-10T23:08:06.015Z,15.58
2019-04-10T23:10:35.314Z,16.50
2019-04-10T23:13:05.584Z,17.20
2019-04-10T23:15:35.555Z,16.75
2019-04-10T23:18:05.483Z,15.45
2019-04-10T23:20:34.270Z,17.17
2019-04-10T23:23:03.158Z,19.15
2019-04-10T23:25:32.156Z,17.00
2019-04-10T23:28:01.094Z,17.35
2019-04-10T23:30:29.916Z,18.52
2019-04-10T23:32:59.614Z,17.40
2019-04-10T23:35:29.542Z,18.23
2019-04-10T23:37:59.379Z,17.92
2019-04-10T23:40:29.194Z,18.62
2019-04-10T23:43:07.732Z,16.52
2019-04-10T23:45:29.444Z,17.93
2019-04-10T23:47:58.410Z,15.32
2019-04-10T23:50:27.106Z,18.23
2019-04-10T23:52:56.245Z,16.27
2019-04-10T23:55:25.997Z,15.20
2019-04-10T23:57:55.912Z,17.32
